Rexmont, Pennsylvania
Current Conditions -  °F | °C
As of 5:53 PM on Wednesday 17 Dec 2014 (Local Time) from KLNS Reporting Station
Broken Clouds Broken Clouds  
Wind Chill: 32°   Ceiling: 5000
Heat Index: 40°   Visibility: 10mi
Dew Point: 25°   Wind: 15mph
Humidity: 55%   Direction: 300°WNW
Pressure: 29.97"   Gusts: 29mph
Location:  40.28°N, 76.38°W
Report Text: KLNS 172253Z 30013G25KT 10SM SCT044 BKN050 04/M04 A2997 RMK AO2 SLP151 T00441039
Loading
Personal Weather Stations






























Interactive Weather Map New forecast layout! Learn more

10-Day Weather Forecast

Advertisements
Track Severe Weather on mobile